createdAt,value
2018-03-17T00:00:27.047Z,89.20
2018-03-17T00:02:58.756Z,89.30
2018-03-17T00:05:28.530Z,89.80
2018-03-17T00:08:24.403Z,89.40
2018-03-17T00:10:58.771Z,89.40
2018-03-17T00:13:29.735Z,89.80
2018-03-17T00:16:11.690Z,89.60
2018-03-17T00:18:41.823Z,89.70
2018-03-17T00:21:14.828Z,88.90
2018-03-17T00:23:45.276Z,89.40
2018-03-17T00:26:18.083Z,89.10
2018-03-17T00:29:01.452Z,89.50
2018-03-17T00:31:33.716Z,89.30
2018-03-17T00:34:18.650Z,88.90
2018-03-17T00:37:00.052Z,88.80
2018-03-17T00:39:33.698Z,89.50
2018-03-17T00:42:03.760Z,89.00
2018-03-17T00:44:43.398Z,89.30
2018-03-17T00:47:19.077Z,89.00
2018-03-17T00:49:49.660Z,88.70
2018-03-17T00:52:27.692Z,88.40
2018-03-17T00:55:08.892Z,88.20
2018-03-17T00:57:41.371Z,88.20
2018-03-17T01:00:32.059Z,88.60
2018-03-17T01:03:18.630Z,88.60
2018-03-17T01:06:01.841Z,89.30
2018-03-17T01:08:46.572Z,90.60
2018-03-17T01:11:18.103Z,89.90
2018-03-17T01:13:52.785Z,90.70
2018-03-17T01:16:26.678Z,91.40
2018-03-17T01:19:01.545Z,92.10
2018-03-17T01:21:31.304Z,92.10
2018-03-17T01:24:19.046Z,92.30
2018-03-17T01:26:59.489Z,92.70
2018-03-17T01:29:38.673Z,92.90
2018-03-17T01:32:08.934Z,93.20
2018-03-17T01:34:42.067Z,93.70
2018-03-17T01:37:16.320Z,93.60
2018-03-17T01:40:00.331Z,94.00
2018-03-17T01:42:44.213Z,94.10
2018-03-17T01:45:26.456Z,94.20
2018-03-17T01:47:58.970Z,94.40
2018-03-17T01:50:32.314Z,94.40
2018-03-17T01:53:19.598Z,94.40
2018-03-17T01:55:51.727Z,94.60
2018-03-17T01:58:22.610Z,94.70
2018-03-17T02:00:56.921Z,94.80
2018-03-17T02:03:31.527Z,94.80
2018-03-17T02:06:04.732Z,94.70
2018-03-17T02:08:38.737Z,94.80
2018-03-17T02:11:18.535Z,94.70
2018-03-17T02:14:07.152Z,94.70
2018-03-17T02:16:49.110Z,94.70
2018-03-17T02:19:21.305Z,94.70
2018-03-17T02:22:10.333Z,94.70
2018-03-17T02:25:02.932Z,94.80
2018-03-17T02:27:50.503Z,94.80
2018-03-17T02:30:26.729Z,94.70
2018-03-17T02:33:06.810Z,94.70
2018-03-17T02:35:37.573Z,94.70
2018-03-17T02:38:22.401Z,94.70
2018-03-17T02:40:56.162Z,94.60
2018-03-17T02:43:26.261Z,94.60
2018-03-17T02:45:59.434Z,94.40
2018-03-17T02:48:38.806Z,94.40
2018-03-17T02:51:09.630Z,94.40
2018-03-17T02:53:40.355Z,95.00
2018-03-17T02:56:26.797Z,94.30
2018-03-17T02:59:01.844Z,94.30
2018-03-17T03:01:39.126Z,94.40
2018-03-17T03:04:21.316Z,94.50
2018-03-17T03:06:51.052Z,94.50
2018-03-17T03:09:21.494Z,94.50
2018-03-17T03:14:56.469Z,94.40
2018-03-17T03:17:30.600Z,94.40
2018-03-17T03:20:01.893Z,94.60
2018-03-17T03:22:37.339Z,94.60
2018-03-17T03:25:08.581Z,94.70
2018-03-17T03:27:52.884Z,94.70
2018-03-17T03:30:29.535Z,94.70
2018-03-17T03:33:00.557Z,95.40
2018-03-17T03:35:31.204Z,94.80
2018-03-17T03:38:06.693Z,94.80
2018-03-17T03:40:38.775Z,94.80
2018-03-17T03:43:16.133Z,95.00
2018-03-17T03:45:48.026Z,95.00
2018-03-17T03:48:32.810Z,95.00
2018-03-17T03:51:11.278Z,95.10
2018-03-17T03:53:42.274Z,95.10
2018-03-17T03:56:23.926Z,95.20
2018-03-17T03:58:56.740Z,95.20
2018-03-17T04:01:30.159Z,95.20
2018-03-17T04:04:00.591Z,95.30
2018-03-17T04:06:33.233Z,95.20
2018-03-17T04:09:04.176Z,95.10
2018-03-17T04:11:35.229Z,95.10
2018-03-17T04:14:09.663Z,95.00
2018-03-17T04:16:42.568Z,94.90
2018-03-17T04:19:25.557Z,95.00
2018-03-17T04:21:56.196Z,95.20
2018-03-17T04:24:33.189Z,95.10
2018-03-17T04:27:07.688Z,95.10
2018-03-17T04:29:37.545Z,95.10
2018-03-17T04:32:27.172Z,95.20
2018-03-17T04:35:14.671Z,95.00
2018-03-17T04:37:59.333Z,95.00
2018-03-17T04:40:32.993Z,94.90
2018-03-17T04:43:07.344Z,94.80
2018-03-17T04:45:40.824Z,94.80
2018-03-17T04:48:14.512Z,94.60
2018-03-17T04:51:02.830Z,94.60
2018-03-17T04:53:42.659Z,94.90
2018-03-17T04:56:14.732Z,94.80
2018-03-17T04:58:47.755Z,94.80
2018-03-17T05:01:17.591Z,95.40
2018-03-17T05:03:47.814Z,94.60
2018-03-17T05:06:24.367Z,94.40
2018-03-17T05:08:55.308Z,94.50
2018-03-17T05:11:25.019Z,94.50
2018-03-17T05:13:54.595Z,94.60
2018-03-17T05:16:24.256Z,94.60
2018-03-17T05:18:55.350Z,94.30
2018-03-17T05:21:24.814Z,94.30
2018-03-17T05:23:55.408Z,94.30
2018-03-17T05:26:25.047Z,94.30
2018-03-17T05:28:54.662Z,94.60
2018-03-17T05:31:24.533Z,94.70
2018-03-17T05:33:54.198Z,94.70
2018-03-17T05:36:24.488Z,94.80
2018-03-17T05:38:54.144Z,94.80
2018-03-17T05:41:24.468Z,95.00
2018-03-17T05:43:54.777Z,95.00
2018-03-17T05:46:25.160Z,94.90
2018-03-17T05:48:55.403Z,94.90
2018-03-17T05:51:25.085Z,95.00
2018-03-17T05:53:54.741Z,95.00
2018-03-17T05:56:24.290Z,95.10
2018-03-17T05:58:53.933Z,95.10
2018-03-17T06:01:23.546Z,94.90
2018-03-17T06:03:53.332Z,94.20
2018-03-17T06:06:22.873Z,93.00
2018-03-17T06:08:53.165Z,93.00
2018-03-17T06:11:22.884Z,93.00
2018-03-17T06:13:53.402Z,92.60
2018-03-17T06:16:23.173Z,92.60
2018-03-17T06:18:53.618Z,92.90
2018-03-17T06:21:23.797Z,92.40
2018-03-17T06:23:54.175Z,92.30
2018-03-17T06:26:23.651Z,92.00
2018-03-17T06:28:54.020Z,91.90
2018-03-17T06:31:23.537Z,91.90
2018-03-17T06:33:53.121Z,92.00
2018-03-17T06:36:22.888Z,92.10
2018-03-17T06:38:52.573Z,92.40
2018-03-17T06:41:22.430Z,92.50
2018-03-17T06:43:52.316Z,92.70
2018-03-17T06:46:21.966Z,93.10
2018-03-17T06:48:51.614Z,93.10
2018-03-17T06:51:22.356Z,93.20
2018-03-17T06:53:52.959Z,92.80
2018-03-17T06:56:22.500Z,92.80
2018-03-17T06:58:52.193Z,93.10
2018-03-17T07:01:21.846Z,93.60
2018-03-17T07:03:52.312Z,93.20
2018-03-17T07:06:21.931Z,93.20
2018-03-17T07:08:52.048Z,93.40
2018-03-17T07:11:22.188Z,93.40
2018-03-17T07:13:51.903Z,93.20
2018-03-17T07:16:21.456Z,92.90
2018-03-17T07:18:51.832Z,92.80
2018-03-17T07:21:21.512Z,92.70
2018-03-17T07:23:51.097Z,91.70
2018-03-17T07:26:21.557Z,90.10
2018-03-17T07:28:51.279Z,90.10
2018-03-17T07:31:21.547Z,88.50
2018-03-17T07:33:51.279Z,89.30
2018-03-17T07:36:22.100Z,89.00
2018-03-17T07:38:52.882Z,89.80
2018-03-17T07:41:23.086Z,89.80
2018-03-17T07:43:52.915Z,90.30
2018-03-17T07:46:23.919Z,90.30
2018-03-17T07:48:55.273Z,90.10
2018-03-17T07:51:27.818Z,90.10
2018-03-17T07:53:57.709Z,89.20
2018-03-17T07:56:29.142Z,87.80
2018-03-17T07:58:58.781Z,87.50
2018-03-17T08:01:28.421Z,87.80
2018-03-17T08:03:58.737Z,87.30
2018-03-17T08:06:28.330Z,87.20
2018-03-17T08:08:58.057Z,86.30
2018-03-17T08:11:28.887Z,88.30
2018-03-17T08:13:58.591Z,88.20
2018-03-17T08:16:29.057Z,87.20
2018-03-17T08:18:59.111Z,87.20
2018-03-17T08:21:29.747Z,87.90
2018-03-17T08:24:05.431Z,85.70
2018-03-17T08:26:36.046Z,84.30
2018-03-17T08:29:06.105Z,84.30
2018-03-17T08:31:35.922Z,82.40
2018-03-17T08:34:06.334Z,78.00
2018-03-17T08:36:38.217Z,77.90
2018-03-17T08:39:08.174Z,77.90
2018-03-17T08:41:37.829Z,75.30
2018-03-17T08:44:08.271Z,73.00
2018-03-17T08:46:38.089Z,73.00
2018-03-17T08:49:07.823Z,74.00
2018-03-17T08:51:38.298Z,73.00
2018-03-17T08:54:10.921Z,72.30
2018-03-17T08:56:41.190Z,72.30
2018-03-17T08:59:12.267Z,72.50
2018-03-17T09:01:41.842Z,72.40
2018-03-17T09:04:12.436Z,70.40
2018-03-17T09:06:43.120Z,70.20
2018-03-17T09:09:13.473Z,72.80
2018-03-17T09:11:43.163Z,70.70
2018-03-17T09:14:13.632Z,69.30
2018-03-17T09:16:44.523Z,69.20
2018-03-17T09:19:15.639Z,68.10
2018-03-17T09:21:46.554Z,66.70
2018-03-17T09:24:16.722Z,66.70
2018-03-17T09:26:46.696Z,64.30
2018-03-17T09:29:23.328Z,64.10
2018-03-17T09:31:53.373Z,66.10
2018-03-17T09:34:23.616Z,67.10
2018-03-17T09:36:54.701Z,68.00
2018-03-17T09:39:25.186Z,70.30
2018-03-17T09:41:55.913Z,70.30
2018-03-17T09:44:26.811Z,70.70
2018-03-17T09:46:57.475Z,70.70
2018-03-17T09:49:27.971Z,70.40
2018-03-17T09:51:58.265Z,67.10
2018-03-17T09:54:29.916Z,66.20
2018-03-17T09:57:01.677Z,65.60
2018-03-17T09:59:31.305Z,65.60
2018-03-17T10:02:02.202Z,65.10
2018-03-17T10:04:31.876Z,64.70
2018-03-17T10:07:02.753Z,65.40
2018-03-17T10:09:32.502Z,65.40
2018-03-17T10:12:02.269Z,66.40
2018-03-17T10:14:32.082Z,67.60
2018-03-17T10:17:02.209Z,67.30
2018-03-17T10:19:31.729Z,66.60
2018-03-17T10:22:01.638Z,66.90
2018-03-17T10:24:31.554Z,65.90
2018-03-17T10:27:01.463Z,65.60
2018-03-17T10:29:31.178Z,64.60
2018-03-17T10:32:00.851Z,63.60
2018-03-17T10:34:30.475Z,64.60
2018-03-17T10:36:59.979Z,66.50
2018-03-17T10:39:29.610Z,67.10
2018-03-17T10:41:59.594Z,67.00
2018-03-17T10:44:31.401Z,68.00
2018-03-17T10:47:01.249Z,67.10
2018-03-17T10:49:31.587Z,63.70
2018-03-17T10:52:01.085Z,63.70
2018-03-17T10:54:30.798Z,63.20
2018-03-17T10:57:00.434Z,61.90
2018-03-17T10:59:30.253Z,62.40
2018-03-17T11:02:05.686Z,63.10
2018-03-17T11:04:42.084Z,65.90
2018-03-17T11:07:13.489Z,66.40
2018-03-17T11:09:42.993Z,66.40
2018-03-17T11:12:14.835Z,65.00
2018-03-17T11:14:44.509Z,64.90
2018-03-17T11:17:14.337Z,63.50
2018-03-17T11:19:44.251Z,63.00
2018-03-17T11:22:14.461Z,63.60
2018-03-17T11:24:44.979Z,61.20
2018-03-17T11:27:17.072Z,62.10
2018-03-17T11:29:47.537Z,65.30
2018-03-17T11:32:17.389Z,65.20
2018-03-17T11:34:47.325Z,64.20
2018-03-17T11:37:20.510Z,63.30
2018-03-17T11:39:50.774Z,62.50
2018-03-17T11:45:40.470Z,61.90
2018-03-17T11:48:10.329Z,63.90
2018-03-17T11:50:40.731Z,63.60
2018-03-17T11:53:10.600Z,63.60
2018-03-17T11:55:42.739Z,64.60
2018-03-17T11:58:19.477Z,64.60
2018-03-17T12:00:49.527Z,64.70
2018-03-17T12:03:19.520Z,63.40
2018-03-17T12:05:50.248Z,64.60
2018-03-17T12:08:20.214Z,64.60
2018-03-17T12:10:49.779Z,64.30
2018-03-17T12:13:19.731Z,64.30
2018-03-17T12:15:50.417Z,65.20
2018-03-17T12:18:21.833Z,65.40
2018-03-17T12:20:51.516Z,65.40
2018-03-17T12:23:21.119Z,64.70
2018-03-17T12:25:53.339Z,63.90
2018-03-17T12:28:23.833Z,61.80
2018-03-17T12:30:53.638Z,61.70
2018-03-17T12:33:23.168Z,58.60
2018-03-17T12:35:53.364Z,54.60
2018-03-17T12:38:23.285Z,53.00
2018-03-17T12:40:52.964Z,54.30
2018-03-17T12:43:23.320Z,51.10
2018-03-17T12:45:52.976Z,51.50
2018-03-17T12:48:23.668Z,55.10
2018-03-17T12:54:17.483Z,52.10
2018-03-17T12:56:47.076Z,51.30
2018-03-17T12:59:17.813Z,52.50
2018-03-17T13:01:49.019Z,61.30
2018-03-17T13:04:18.862Z,61.20
2018-03-17T13:06:48.459Z,61.80
2018-03-17T13:09:18.178Z,66.10
2018-03-17T13:11:48.490Z,68.10
2018-03-17T13:14:18.593Z,66.60
2018-03-17T13:16:48.947Z,67.30
2018-03-17T13:19:34.525Z,65.50
2018-03-17T13:22:05.297Z,65.30
2018-03-17T13:24:36.216Z,66.60
2018-03-17T13:27:23.961Z,66.20
2018-03-17T13:29:54.756Z,64.80
2018-03-17T13:32:42.399Z,64.60
2018-03-17T13:35:12.074Z,64.70
2018-03-17T13:37:41.817Z,64.80
2018-03-17T13:40:29.348Z,63.30
2018-03-17T13:42:59.360Z,63.20
2018-03-17T13:45:30.077Z,60.80
2018-03-17T13:47:59.863Z,60.60
2018-03-17T13:50:30.312Z,58.20
2018-03-17T13:53:00.221Z,58.00
2018-03-17T13:55:29.858Z,58.00
2018-03-17T13:58:00.329Z,55.50
2018-03-17T14:00:39.573Z,54.60
2018-03-17T14:03:11.375Z,55.20
2018-03-17T14:05:41.935Z,55.20
2018-03-17T14:08:12.983Z,52.60
2018-03-17T14:10:45.801Z,53.20
2018-03-17T14:13:16.487Z,53.00
2018-03-17T14:15:47.490Z,53.10
2018-03-17T14:18:17.448Z,49.60
2018-03-17T14:20:48.254Z,46.00
2018-03-17T14:23:19.930Z,44.60
2018-03-17T14:25:49.940Z,44.60
2018-03-17T14:28:20.156Z,40.40
2018-03-17T14:30:55.962Z,39.70
2018-03-17T14:33:26.656Z,39.80
2018-03-17T14:35:57.279Z,40.80
2018-03-17T14:38:27.968Z,42.20
2018-03-17T14:40:59.134Z,43.60
2018-03-17T14:43:29.791Z,43.00
2018-03-17T14:46:00.048Z,46.00
2018-03-17T14:48:30.537Z,42.50
2018-03-17T14:51:02.654Z,43.40
2018-03-17T14:53:33.097Z,41.30
2018-03-17T14:56:03.119Z,40.20
2018-03-17T14:58:33.537Z,41.80
2018-03-17T15:01:04.582Z,34.30
2018-03-17T15:03:37.167Z,38.20
2018-03-17T15:06:12.601Z,38.10
2018-03-17T15:08:42.574Z,37.20
2018-03-17T15:11:12.682Z,36.30
2018-03-17T15:13:43.388Z,33.20
2018-03-17T15:16:14.881Z,34.00
2018-03-17T15:18:46.121Z,34.00
2018-03-17T15:21:16.112Z,33.40
2018-03-17T15:23:46.381Z,33.20
2018-03-17T15:26:17.482Z,36.20
2018-03-17T15:28:47.874Z,37.80
2018-03-17T15:31:20.381Z,38.70
2018-03-17T15:33:50.256Z,38.60
2018-03-17T15:36:20.641Z,40.60
2018-03-17T15:38:51.199Z,40.50
2018-03-17T15:41:22.639Z,40.00
2018-03-17T15:43:53.886Z,38.60
2018-03-17T15:46:24.093Z,38.50
2018-03-17T15:48:54.004Z,40.40
2018-03-17T15:51:24.514Z,40.20
2018-03-17T15:53:54.218Z,40.70
2018-03-17T15:56:25.613Z,41.10
2018-03-17T15:58:56.358Z,41.00
2018-03-17T16:01:26.044Z,41.80
2018-03-17T16:03:55.647Z,42.50
2018-03-17T16:06:25.563Z,45.30
2018-03-17T16:08:57.042Z,48.80
2018-03-17T16:11:26.573Z,47.00
2018-03-17T16:13:56.849Z,49.20
2018-03-17T16:16:27.386Z,48.70
2018-03-17T16:18:56.860Z,48.60
2018-03-17T16:21:26.677Z,49.90
2018-03-17T16:23:57.474Z,50.40
2018-03-17T16:26:29.964Z,52.30
2018-03-17T16:29:00.452Z,53.90
2018-03-17T16:31:30.135Z,53.80
2018-03-17T16:33:59.695Z,55.90
2018-03-17T16:36:29.271Z,57.50
2018-03-17T16:38:59.087Z,59.20
2018-03-17T16:41:30.766Z,55.60
2018-03-17T16:44:14.946Z,57.60
2018-03-17T16:46:45.304Z,61.00
2018-03-17T16:49:14.777Z,61.00
2018-03-17T16:51:44.567Z,61.10
2018-03-17T16:54:14.189Z,61.40
2018-03-17T16:56:46.058Z,61.90
2018-03-17T16:59:17.709Z,62.40
2018-03-17T17:01:49.628Z,62.70
2018-03-17T17:04:19.374Z,62.60
2018-03-17T17:06:49.967Z,63.60
2018-03-17T17:09:20.604Z,63.70
2018-03-17T17:11:50.223Z,64.00
2018-03-17T17:14:21.159Z,64.30
2018-03-17T17:16:51.164Z,65.00
2018-03-17T17:19:20.821Z,65.60
2018-03-17T17:21:51.399Z,66.40
2018-03-17T17:24:22.036Z,67.30
2018-03-17T17:26:53.488Z,67.30
2018-03-17T17:29:25.703Z,67.70
2018-03-17T17:31:58.021Z,68.40
2018-03-17T17:34:27.566Z,68.40
2018-03-17T17:36:57.301Z,68.80
2018-03-17T17:39:27.402Z,68.90
2018-03-17T17:41:57.884Z,69.60
2018-03-17T17:44:27.481Z,69.50
2018-03-17T17:46:57.098Z,69.70
2018-03-17T17:49:26.921Z,70.10
2018-03-17T17:51:56.485Z,70.50
2018-03-17T17:54:29.166Z,71.10
2018-03-17T17:57:00.398Z,71.20
2018-03-17T17:59:30.887Z,71.00
2018-03-17T18:02:00.810Z,70.90
2018-03-17T18:04:30.934Z,71.30
2018-03-17T18:07:00.734Z,71.20
2018-03-17T18:09:31.788Z,71.50
2018-03-17T18:12:01.629Z,71.50
2018-03-17T18:14:31.529Z,71.30
2018-03-17T18:17:02.024Z,70.70
2018-03-17T18:19:32.100Z,70.70
2018-03-17T18:22:02.224Z,70.70
2018-03-17T18:24:33.135Z,70.50
2018-03-17T18:27:03.768Z,70.40
2018-03-17T18:29:34.533Z,70.90
2018-03-17T18:32:05.560Z,71.00
2018-03-17T18:34:36.286Z,71.60
2018-03-17T18:37:06.229Z,70.90
2018-03-17T18:39:36.817Z,70.90
2018-03-17T18:42:06.609Z,70.90
2018-03-17T18:44:37.528Z,70.70
2018-03-17T18:47:08.368Z,69.80
2018-03-17T18:49:38.269Z,69.80
2018-03-17T18:52:07.907Z,68.80
2018-03-17T18:54:37.565Z,68.90
2018-03-17T18:57:08.173Z,70.30
2018-03-17T18:59:37.958Z,70.30
2018-03-17T19:02:07.893Z,71.30
2018-03-17T19:04:37.420Z,70.80
2018-03-17T19:07:07.164Z,71.70
2018-03-17T19:09:37.605Z,72.80
2018-03-17T19:12:07.239Z,72.80
2018-03-17T19:14:36.870Z,73.20
2018-03-17T19:17:06.445Z,73.80
2018-03-17T19:19:36.092Z,74.20
2018-03-17T19:22:05.566Z,74.60
2018-03-17T19:24:35.091Z,74.90
2018-03-17T19:27:05.270Z,75.10
2018-03-17T19:29:35.819Z,75.70
2018-03-17T19:32:05.303Z,75.60
2018-03-17T19:34:35.840Z,76.50
2018-03-17T19:37:05.586Z,76.40
2018-03-17T19:39:35.088Z,76.80
2018-03-17T19:42:04.807Z,77.20
2018-03-17T19:44:35.487Z,77.30
2018-03-17T19:47:05.240Z,77.90
2018-03-17T19:49:34.852Z,78.40
2018-03-17T19:52:05.550Z,79.40
2018-03-17T19:54:36.021Z,79.80
2018-03-17T19:57:12.039Z,79.80
2018-03-17T19:59:49.984Z,79.80
2018-03-17T20:02:20.548Z,79.80
2018-03-17T20:04:50.828Z,79.80
2018-03-17T20:07:21.968Z,80.00
2018-03-17T20:09:53.168Z,80.40
2018-03-17T20:12:24.524Z,80.90
2018-03-17T20:14:55.545Z,81.50
2018-03-17T20:17:26.790Z,84.00
2018-03-17T20:19:56.972Z,83.90
2018-03-17T20:22:26.590Z,84.60
2018-03-17T20:25:12.892Z,83.60
2018-03-17T20:27:47.149Z,84.10
2018-03-17T20:30:17.427Z,85.40
2018-03-17T20:32:47.796Z,86.60
2018-03-17T20:35:19.918Z,87.00
2018-03-17T20:37:49.629Z,86.90
2018-03-17T20:40:19.638Z,86.80
2018-03-17T20:42:49.623Z,87.20
2018-03-17T20:45:21.944Z,88.60
2018-03-17T20:47:51.858Z,88.60
2018-03-17T20:50:21.630Z,88.60
2018-03-17T20:52:51.539Z,89.00
2018-03-17T20:55:22.722Z,88.80
2018-03-17T20:57:52.297Z,89.00
2018-03-17T21:00:21.904Z,89.00
2018-03-17T21:02:53.413Z,89.00
2018-03-17T21:05:29.064Z,89.00
2018-03-17T21:08:05.342Z,89.10
2018-03-17T21:10:35.314Z,89.00
2018-03-17T21:13:04.888Z,88.60
2018-03-17T21:15:35.347Z,87.90
2018-03-17T21:18:05.033Z,87.80
2018-03-17T21:20:35.431Z,88.30
2018-03-17T21:23:05.744Z,88.60
2018-03-17T21:25:35.441Z,89.20
2018-03-17T21:28:05.007Z,88.20
2018-03-17T21:30:35.001Z,88.00
2018-03-17T21:33:04.675Z,88.50
2018-03-17T21:35:35.139Z,88.80
2018-03-17T21:38:05.419Z,89.50
2018-03-17T21:40:35.544Z,89.50
2018-03-17T21:43:05.680Z,90.10
2018-03-17T21:45:35.422Z,90.40
2018-03-17T21:48:05.770Z,90.20
2018-03-17T21:50:35.385Z,90.20
2018-03-17T21:53:05.187Z,90.70
2018-03-17T21:55:35.749Z,91.30
2018-03-17T21:58:05.456Z,91.30
2018-03-17T22:00:35.030Z,91.50
2018-03-17T22:03:05.314Z,91.50
2018-03-17T22:05:35.499Z,91.50
2018-03-17T22:08:05.331Z,91.60
2018-03-17T22:10:34.795Z,91.30
2018-03-17T22:13:04.466Z,91.20
2018-03-17T22:15:34.139Z,90.90
2018-03-17T22:18:04.458Z,90.90
2018-03-17T22:20:34.460Z,91.30
2018-03-17T22:23:04.435Z,91.60
2018-03-17T22:25:36.119Z,91.90
2018-03-17T22:28:06.240Z,91.90
2018-03-17T22:30:37.289Z,92.60
2018-03-17T22:33:13.740Z,92.80
2018-03-17T22:35:45.649Z,92.80
2018-03-17T22:38:15.576Z,92.80
2018-03-17T22:40:45.380Z,93.10
2018-03-17T22:43:14.881Z,93.10
2018-03-17T22:45:45.154Z,93.50
2018-03-17T22:48:14.803Z,93.70
2018-03-17T22:50:44.641Z,94.00
2018-03-17T22:53:14.261Z,94.10
2018-03-17T22:55:43.759Z,94.00
2018-03-17T22:58:13.719Z,94.00
2018-03-17T23:00:44.015Z,94.30
2018-03-17T23:03:14.317Z,94.40
2018-03-17T23:05:49.115Z,94.50
2018-03-17T23:08:20.879Z,94.50
2018-03-17T23:10:50.412Z,94.40
2018-03-17T23:13:19.995Z,94.50
2018-03-17T23:15:49.671Z,94.20
2018-03-17T23:18:20.110Z,94.10
2018-03-17T23:20:50.436Z,94.00
2018-03-17T23:23:20.395Z,94.00
2018-03-17T23:25:49.914Z,93.70
2018-03-17T23:28:19.915Z,93.70
2018-03-17T23:30:50.058Z,93.60
2018-03-17T23:33:20.941Z,93.70
2018-03-17T23:35:51.909Z,93.80
2018-03-17T23:38:21.745Z,93.90
2018-03-17T23:40:51.277Z,94.20
2018-03-17T23:43:23.675Z,94.60
2018-03-17T23:45:53.365Z,94.40
2018-03-17T23:48:23.613Z,94.50
2018-03-17T23:50:53.564Z,94.50
2018-03-17T23:53:23.127Z,94.70
2018-03-17T23:55:53.094Z,94.70
2018-03-17T23:58:22.811Z,94.80
